sensor_id;sensor_type;location;lat;lon;timestamp;P1;durP1;ratioP1;P2;durP2;ratioP2
78783;SDS011;68127;51.050;14.084;2023-03-19T00:02:16;15.57;;;9.52;;
78783;SDS011;68127;51.050;14.084;2023-03-19T00:04:41;17.88;;;10.43;;
78783;SDS011;68127;51.050;14.084;2023-03-19T00:07:06;15.48;;;8.65;;
78783;SDS011;68127;51.050;14.084;2023-03-19T00:09:32;15.32;;;8.95;;
78783;SDS011;68127;51.050;14.084;2023-03-19T00:11:57;15.68;;;8.95;;
78783;SDS011;68127;51.050;14.084;2023-03-19T00:14:22;17.70;;;9.13;;
78783;SDS011;68127;51.050;14.084;2023-03-19T00:16:47;17.80;;;10.40;;
78783;SDS011;68127;51.050;14.084;2023-03-19T00:19:13;16.90;;;9.00;;
78783;SDS011;68127;51.050;14.084;2023-03-19T00:21:38;18.25;;;8.80;;
78783;SDS011;68127;51.050;14.084;2023-03-19T00:24:05;14.73;;;8.65;;
78783;SDS011;68127;51.050;14.084;2023-03-19T00:26:30;15.38;;;8.05;;
78783;SDS011;68127;51.050;14.084;2023-03-19T00:28:57;17.42;;;9.80;;
78783;SDS011;68127;51.050;14.084;2023-03-19T00:31:22;21.38;;;11.50;;
78783;SDS011;68127;51.050;14.084;2023-03-19T00:33:48;22.30;;;10.35;;
78783;SDS011;68127;51.050;14.084;2023-03-19T00:36:13;17.35;;;10.75;;
78783;SDS011;68127;51.050;14.084;2023-03-19T00:38:40;17.52;;;10.00;;
78783;SDS011;68127;51.050;14.084;2023-03-19T00:41:07;19.77;;;10.95;;
78783;SDS011;68127;51.050;14.084;2023-03-19T00:43:32;20.60;;;11.23;;
78783;SDS011;68127;51.050;14.084;2023-03-19T00:45:57;20.77;;;11.60;;
78783;SDS011;68127;51.050;14.084;2023-03-19T00:48:23;19.35;;;10.93;;
78783;SDS011;68127;51.050;14.084;2023-03-19T00:50:48;17.45;;;10.50;;
78783;SDS011;68127;51.050;14.084;2023-03-19T00:53:14;19.98;;;10.82;;
78783;SDS011;68127;51.050;14.084;2023-03-19T00:55:40;16.63;;;10.38;;
78783;SDS011;68127;51.050;14.084;2023-03-19T00:58:05;19.38;;;10.73;;
78783;SDS011;68127;51.050;14.084;2023-03-19T01:00:31;18.45;;;10.40;;
78783;SDS011;68127;51.050;14.084;2023-03-19T01:02:57;17.35;;;9.70;;
78783;SDS011;68127;51.050;14.084;2023-03-19T01:05:22;15.48;;;8.68;;
78783;SDS011;68127;51.050;14.084;2023-03-19T01:07:47;15.85;;;8.95;;
78783;SDS011;68127;51.050;14.084;2023-03-19T01:10:12;15.95;;;9.18;;
78783;SDS011;68127;51.050;14.084;2023-03-19T01:12:38;29.83;;;8.95;;
78783;SDS011;68127;51.050;14.084;2023-03-19T01:15:04;18.08;;;9.32;;
78783;SDS011;68127;51.050;14.084;2023-03-19T01:17:30;16.48;;;9.25;;
78783;SDS011;68127;51.050;14.084;2023-03-19T01:19:56;15.85;;;9.30;;
78783;SDS011;68127;51.050;14.084;2023-03-19T01:22:21;19.42;;;8.95;;
78783;SDS011;68127;51.050;14.084;2023-03-19T01:24:46;16.05;;;8.95;;
78783;SDS011;68127;51.050;14.084;2023-03-19T01:27:12;14.57;;;8.40;;
78783;SDS011;68127;51.050;14.084;2023-03-19T01:29:37;17.85;;;8.45;;
78783;SDS011;68127;51.050;14.084;2023-03-19T01:32:02;14.35;;;8.70;;
78783;SDS011;68127;51.050;14.084;2023-03-19T01:34:28;16.55;;;8.68;;
78783;SDS011;68127;51.050;14.084;2023-03-19T01:36:53;18.73;;;9.30;;
78783;SDS011;68127;51.050;14.084;2023-03-19T01:39:19;15.73;;;8.52;;
78783;SDS011;68127;51.050;14.084;2023-03-19T01:41:44;16.30;;;8.52;;
78783;SDS011;68127;51.050;14.084;2023-03-19T01:47:15;15.27;;;9.00;;
78783;SDS011;68127;51.050;14.084;2023-03-19T01:49:43;18.85;;;8.25;;
78783;SDS011;68127;51.050;14.084;2023-03-19T01:52:11;18.50;;;8.82;;
78783;SDS011;68127;51.050;14.084;2023-03-19T01:54:37;14.57;;;8.15;;
78783;SDS011;68127;51.050;14.084;2023-03-19T01:57:07;16.52;;;8.48;;
78783;SDS011;68127;51.050;14.084;2023-03-19T01:59:35;15.48;;;7.97;;
78783;SDS011;68127;51.050;14.084;2023-03-19T02:02:05;17.55;;;9.25;;
78783;SDS011;68127;51.050;14.084;2023-03-19T02:04:34;16.15;;;9.02;;
78783;SDS011;68127;51.050;14.084;2023-03-19T02:07:00;15.02;;;9.02;;
78783;SDS011;68127;51.050;14.084;2023-03-19T02:09:27;14.10;;;8.10;;
78783;SDS011;68127;51.050;14.084;2023-03-19T02:11:53;15.30;;;8.23;;
78783;SDS011;68127;51.050;14.084;2023-03-19T02:14:19;16.23;;;8.68;;
78783;SDS011;68127;51.050;14.084;2023-03-19T02:16:45;14.40;;;8.70;;
78783;SDS011;68127;51.050;14.084;2023-03-19T02:19:12;15.98;;;7.80;;
78783;SDS011;68127;51.050;14.084;2023-03-19T02:21:41;12.75;;;7.43;;
78783;SDS011;68127;51.050;14.084;2023-03-19T02:24:11;18.67;;;9.13;;
78783;SDS011;68127;51.050;14.084;2023-03-19T02:26:38;14.15;;;8.57;;
78783;SDS011;68127;51.050;14.084;2023-03-19T02:29:04;13.63;;;7.80;;
78783;SDS011;68127;51.050;14.084;2023-03-19T02:31:30;15.82;;;8.25;;
78783;SDS011;68127;51.050;14.084;2023-03-19T02:37:29;15.13;;;7.40;;
78783;SDS011;68127;51.050;14.084;2023-03-19T02:40:00;16.92;;;8.20;;
78783;SDS011;68127;51.050;14.084;2023-03-19T02:42:29;14.75;;;7.93;;
78783;SDS011;68127;51.050;14.084;2023-03-19T02:44:55;14.25;;;8.48;;
78783;SDS011;68127;51.050;14.084;2023-03-19T02:47:21;15.70;;;8.98;;
78783;SDS011;68127;51.050;14.084;2023-03-19T02:49:47;15.93;;;8.35;;
78783;SDS011;68127;51.050;14.084;2023-03-19T02:52:13;14.35;;;8.13;;
78783;SDS011;68127;51.050;14.084;2023-03-19T02:54:38;18.27;;;7.88;;
78783;SDS011;68127;51.050;14.084;2023-03-19T02:57:03;13.25;;;8.40;;
78783;SDS011;68127;51.050;14.084;2023-03-19T02:59:29;14.07;;;7.70;;
78783;SDS011;68127;51.050;14.084;2023-03-19T03:01:55;15.75;;;8.35;;
78783;SDS011;68127;51.050;14.084;2023-03-19T03:04:20;13.57;;;7.40;;
78783;SDS011;68127;51.050;14.084;2023-03-19T03:06:45;15.07;;;7.95;;
78783;SDS011;68127;51.050;14.084;2023-03-19T03:09:11;14.00;;;6.88;;
78783;SDS011;68127;51.050;14.084;2023-03-19T03:11:37;16.38;;;7.47;;
78783;SDS011;68127;51.050;14.084;2023-03-19T03:14:05;14.02;;;7.32;;
78783;SDS011;68127;51.050;14.084;2023-03-19T03:16:30;11.88;;;7.38;;
78783;SDS011;68127;51.050;14.084;2023-03-19T03:18:56;13.13;;;7.03;;
78783;SDS011;68127;51.050;14.084;2023-03-19T03:21:21;15.15;;;8.15;;
78783;SDS011;68127;51.050;14.084;2023-03-19T03:23:47;12.43;;;7.78;;
78783;SDS011;68127;51.050;14.084;2023-03-19T03:26:12;14.88;;;7.32;;
78783;SDS011;68127;51.050;14.084;2023-03-19T03:28:38;13.40;;;7.35;;
78783;SDS011;68127;51.050;14.084;2023-03-19T03:31:03;12.00;;;7.10;;
78783;SDS011;68127;51.050;14.084;2023-03-19T03:33:28;15.55;;;8.10;;
78783;SDS011;68127;51.050;14.084;2023-03-19T03:35:53;14.02;;;7.43;;
78783;SDS011;68127;51.050;14.084;2023-03-19T03:38:19;16.58;;;7.55;;
78783;SDS011;68127;51.050;14.084;2023-03-19T03:40:48;11.60;;;7.10;;
78783;SDS011;68127;51.050;14.084;2023-03-19T03:43:14;15.32;;;7.55;;
78783;SDS011;68127;51.050;14.084;2023-03-19T03:45:40;12.30;;;6.88;;
78783;SDS011;68127;51.050;14.084;2023-03-19T03:48:05;15.73;;;7.50;;
78783;SDS011;68127;51.050;14.084;2023-03-19T03:50:31;13.27;;;7.30;;
78783;SDS011;68127;51.050;14.084;2023-03-19T03:52:56;12.20;;;7.28;;
78783;SDS011;68127;51.050;14.084;2023-03-19T03:55:21;13.68;;;7.55;;
78783;SDS011;68127;51.050;14.084;2023-03-19T03:57:46;12.55;;;7.18;;
78783;SDS011;68127;51.050;14.084;2023-03-19T04:00:13;15.13;;;7.38;;
78783;SDS011;68127;51.050;14.084;2023-03-19T04:02:38;11.73;;;6.90;;
78783;SDS011;68127;51.050;14.084;2023-03-19T04:05:04;12.85;;;6.93;;
78783;SDS011;68127;51.050;14.084;2023-03-19T04:07:30;12.05;;;7.43;;
78783;SDS011;68127;51.050;14.084;2023-03-19T04:09:56;16.67;;;8.00;;
78783;SDS011;68127;51.050;14.084;2023-03-19T04:12:22;12.07;;;7.10;;
78783;SDS011;68127;51.050;14.084;2023-03-19T04:14:48;13.27;;;7.35;;
78783;SDS011;68127;51.050;14.084;2023-03-19T04:17:13;14.15;;;7.35;;
78783;SDS011;68127;51.050;14.084;2023-03-19T04:19:38;12.73;;;6.85;;
78783;SDS011;68127;51.050;14.084;2023-03-19T04:22:03;12.07;;;6.85;;
78783;SDS011;68127;51.050;14.084;2023-03-19T04:24:29;13.65;;;7.30;;
78783;SDS011;68127;51.050;14.084;2023-03-19T04:26:54;12.90;;;6.95;;
78783;SDS011;68127;51.050;14.084;2023-03-19T04:29:19;14.23;;;6.97;;
78783;SDS011;68127;51.050;14.084;2023-03-19T04:31:46;14.88;;;7.30;;
78783;SDS011;68127;51.050;14.084;2023-03-19T04:34:11;15.32;;;7.40;;
78783;SDS011;68127;51.050;14.084;2023-03-19T04:36:37;13.25;;;7.32;;
78783;SDS011;68127;51.050;14.084;2023-03-19T04:39:02;16.20;;;7.85;;
78783;SDS011;68127;51.050;14.084;2023-03-19T04:41:28;16.38;;;7.50;;
78783;SDS011;68127;51.050;14.084;2023-03-19T04:43:53;15.63;;;7.93;;
78783;SDS011;68127;51.050;14.084;2023-03-19T04:46:19;14.15;;;7.45;;
78783;SDS011;68127;51.050;14.084;2023-03-19T04:48:44;11.85;;;6.38;;
78783;SDS011;68127;51.050;14.084;2023-03-19T04:51:10;12.73;;;7.38;;
78783;SDS011;68127;51.050;14.084;2023-03-19T04:53:36;14.18;;;7.63;;
78783;SDS011;68127;51.050;14.084;2023-03-19T04:56:02;15.90;;;7.35;;
78783;SDS011;68127;51.050;14.084;2023-03-19T04:58:28;13.32;;;7.57;;
78783;SDS011;68127;51.050;14.084;2023-03-19T05:00:53;13.35;;;7.35;;
78783;SDS011;68127;51.050;14.084;2023-03-19T05:03:18;11.32;;;6.72;;
78783;SDS011;68127;51.050;14.084;2023-03-19T05:05:44;12.73;;;7.25;;
78783;SDS011;68127;51.050;14.084;2023-03-19T05:08:09;13.93;;;7.32;;
78783;SDS011;68127;51.050;14.084;2023-03-19T05:10:35;17.45;;;7.97;;
78783;SDS011;68127;51.050;14.084;2023-03-19T05:13:01;11.65;;;6.80;;
78783;SDS011;68127;51.050;14.084;2023-03-19T05:15:26;12.65;;;6.75;;
78783;SDS011;68127;51.050;14.084;2023-03-19T05:17:51;11.50;;;6.65;;
78783;SDS011;68127;51.050;14.084;2023-03-19T05:20:17;13.02;;;6.72;;
78783;SDS011;68127;51.050;14.084;2023-03-19T05:22:43;12.48;;;7.13;;
78783;SDS011;68127;51.050;14.084;2023-03-19T05:25:08;11.18;;;6.53;;
78783;SDS011;68127;51.050;14.084;2023-03-19T05:27:33;11.85;;;6.82;;
78783;SDS011;68127;51.050;14.084;2023-03-19T05:29:59;11.95;;;6.38;;
78783;SDS011;68127;51.050;14.084;2023-03-19T05:32:25;14.27;;;7.65;;
78783;SDS011;68127;51.050;14.084;2023-03-19T05:34:50;13.77;;;7.38;;
78783;SDS011;68127;51.050;14.084;2023-03-19T05:37:15;12.95;;;7.18;;
78783;SDS011;68127;51.050;14.084;2023-03-19T05:39:41;14.70;;;7.43;;
78783;SDS011;68127;51.050;14.084;2023-03-19T05:42:06;13.68;;;7.50;;
78783;SDS011;68127;51.050;14.084;2023-03-19T05:44:31;14.63;;;7.18;;
78783;SDS011;68127;51.050;14.084;2023-03-19T05:46:57;12.60;;;7.13;;
78783;SDS011;68127;51.050;14.084;2023-03-19T05:49:22;12.95;;;7.15;;
78783;SDS011;68127;51.050;14.084;2023-03-19T05:51:47;13.18;;;6.78;;
78783;SDS011;68127;51.050;14.084;2023-03-19T05:54:12;12.30;;;7.03;;
78783;SDS011;68127;51.050;14.084;2023-03-19T05:56:38;16.45;;;6.72;;
78783;SDS011;68127;51.050;14.084;2023-03-19T05:59:03;13.02;;;6.97;;
78783;SDS011;68127;51.050;14.084;2023-03-19T06:01:28;14.90;;;7.10;;
78783;SDS011;68127;51.050;14.084;2023-03-19T06:03:54;13.27;;;6.07;;
78783;SDS011;68127;51.050;14.084;2023-03-19T06:06:19;13.70;;;6.35;;
78783;SDS011;68127;51.050;14.084;2023-03-19T06:08:44;13.60;;;6.70;;
78783;SDS011;68127;51.050;14.084;2023-03-19T06:11:10;14.60;;;6.95;;
78783;SDS011;68127;51.050;14.084;2023-03-19T06:13:36;11.88;;;6.35;;
78783;SDS011;68127;51.050;14.084;2023-03-19T06:16:01;13.63;;;7.35;;
78783;SDS011;68127;51.050;14.084;2023-03-19T06:18:26;12.35;;;7.32;;
78783;SDS011;68127;51.050;14.084;2023-03-19T06:20:51;13.02;;;7.22;;
78783;SDS011;68127;51.050;14.084;2023-03-19T06:23:17;12.43;;;6.82;;
78783;SDS011;68127;51.050;14.084;2023-03-19T06:25:43;11.10;;;7.22;;
78783;SDS011;68127;51.050;14.084;2023-03-19T06:28:08;14.52;;;7.20;;
78783;SDS011;68127;51.050;14.084;2023-03-19T06:30:33;14.13;;;7.28;;
78783;SDS011;68127;51.050;14.084;2023-03-19T06:32:59;14.50;;;7.07;;
78783;SDS011;68127;51.050;14.084;2023-03-19T06:35:24;12.50;;;6.70;;
78783;SDS011;68127;51.050;14.084;2023-03-19T06:37:50;12.32;;;6.88;;
78783;SDS011;68127;51.050;14.084;2023-03-19T06:40:16;10.48;;;6.72;;
78783;SDS011;68127;51.050;14.084;2023-03-19T06:42:45;11.25;;;6.50;;
78783;SDS011;68127;51.050;14.084;2023-03-19T06:45:11;11.43;;;7.20;;
78783;SDS011;68127;51.050;14.084;2023-03-19T06:47:40;11.45;;;6.80;;
78783;SDS011;68127;51.050;14.084;2023-03-19T06:50:09;13.15;;;6.65;;
78783;SDS011;68127;51.050;14.084;2023-03-19T06:52:35;12.95;;;7.72;;
78783;SDS011;68127;51.050;14.084;2023-03-19T06:55:00;14.05;;;7.22;;
78783;SDS011;68127;51.050;14.084;2023-03-19T06:57:25;12.32;;;7.13;;
78783;SDS011;68127;51.050;14.084;2023-03-19T06:59:51;11.52;;;6.93;;
78783;SDS011;68127;51.050;14.084;2023-03-19T07:02:16;14.63;;;7.40;;
78783;SDS011;68127;51.050;14.084;2023-03-19T07:04:42;14.02;;;7.53;;
78783;SDS011;68127;51.050;14.084;2023-03-19T07:07:07;11.95;;;7.00;;
78783;SDS011;68127;51.050;14.084;2023-03-19T07:09:32;12.57;;;7.28;;
78783;SDS011;68127;51.050;14.084;2023-03-19T07:11:58;12.32;;;6.78;;
78783;SDS011;68127;51.050;14.084;2023-03-19T07:14:23;16.63;;;8.00;;
78783;SDS011;68127;51.050;14.084;2023-03-19T07:16:48;11.57;;;6.45;;
78783;SDS011;68127;51.050;14.084;2023-03-19T07:19:14;13.38;;;7.07;;
78783;SDS011;68127;51.050;14.084;2023-03-19T07:21:42;12.18;;;6.97;;
78783;SDS011;68127;51.050;14.084;2023-03-19T07:24:07;14.48;;;7.32;;
78783;SDS011;68127;51.050;14.084;2023-03-19T07:26:32;12.23;;;7.28;;
78783;SDS011;68127;51.050;14.084;2023-03-19T07:28:58;10.88;;;6.75;;
78783;SDS011;68127;51.050;14.084;2023-03-19T07:31:23;10.18;;;6.15;;
78783;SDS011;68127;51.050;14.084;2023-03-19T07:33:48;13.43;;;7.53;;
78783;SDS011;68127;51.050;14.084;2023-03-19T07:36:13;13.73;;;7.30;;
78783;SDS011;68127;51.050;14.084;2023-03-19T07:38:39;14.50;;;6.57;;
78783;SDS011;68127;51.050;14.084;2023-03-19T07:41:04;13.43;;;7.05;;
78783;SDS011;68127;51.050;14.084;2023-03-19T07:43:30;13.23;;;7.60;;
78783;SDS011;68127;51.050;14.084;2023-03-19T07:45:55;13.50;;;7.05;;
78783;SDS011;68127;51.050;14.084;2023-03-19T07:48:21;10.75;;;6.28;;
78783;SDS011;68127;51.050;14.084;2023-03-19T07:50:46;10.60;;;6.30;;
78783;SDS011;68127;51.050;14.084;2023-03-19T07:53:14;11.93;;;7.22;;
78783;SDS011;68127;51.050;14.084;2023-03-19T07:55:39;11.23;;;6.65;;
78783;SDS011;68127;51.050;14.084;2023-03-19T07:58:05;11.98;;;7.05;;
78783;SDS011;68127;51.050;14.084;2023-03-19T08:00:30;14.48;;;8.10;;
78783;SDS011;68127;51.050;14.084;2023-03-19T08:02:55;12.48;;;7.55;;
78783;SDS011;68127;51.050;14.084;2023-03-19T08:05:20;13.48;;;7.57;;
78783;SDS011;68127;51.050;14.084;2023-03-19T08:07:47;12.38;;;6.75;;
78783;SDS011;68127;51.050;14.084;2023-03-19T08:10:13;14.65;;;7.22;;
78783;SDS011;68127;51.050;14.084;2023-03-19T08:12:38;13.77;;;7.65;;
78783;SDS011;68127;51.050;14.084;2023-03-19T08:15:05;12.98;;;7.32;;
78783;SDS011;68127;51.050;14.084;2023-03-19T08:17:32;13.95;;;8.00;;
78783;SDS011;68127;51.050;14.084;2023-03-19T08:20:02;13.80;;;7.93;;
78783;SDS011;68127;51.050;14.084;2023-03-19T08:22:38;16.15;;;8.68;;
78783;SDS011;68127;51.050;14.084;2023-03-19T08:25:05;12.77;;;8.37;;
78783;SDS011;68127;51.050;14.084;2023-03-19T08:27:31;10.88;;;6.72;;
78783;SDS011;68127;51.050;14.084;2023-03-19T08:29:58;15.40;;;7.97;;
78783;SDS011;68127;51.050;14.084;2023-03-19T08:32:23;11.75;;;6.65;;
78783;SDS011;68127;51.050;14.084;2023-03-19T08:34:49;13.20;;;7.68;;
78783;SDS011;68127;51.050;14.084;2023-03-19T08:37:14;13.23;;;7.45;;
78783;SDS011;68127;51.050;14.084;2023-03-19T08:39:39;13.57;;;7.22;;
78783;SDS011;68127;51.050;14.084;2023-03-19T08:42:05;11.82;;;6.97;;
78783;SDS011;68127;51.050;14.084;2023-03-19T08:44:30;13.18;;;6.75;;
78783;SDS011;68127;51.050;14.084;2023-03-19T08:46:55;16.27;;;8.73;;
78783;SDS011;68127;51.050;14.084;2023-03-19T08:49:21;15.75;;;8.25;;
78783;SDS011;68127;51.050;14.084;2023-03-19T08:51:46;16.40;;;8.68;;
78783;SDS011;68127;51.050;14.084;2023-03-19T08:54:11;15.38;;;7.80;;
78783;SDS011;68127;51.050;14.084;2023-03-19T08:56:37;13.05;;;6.95;;
78783;SDS011;68127;51.050;14.084;2023-03-19T08:59:03;14.23;;;7.70;;
78783;SDS011;68127;51.050;14.084;2023-03-19T09:01:28;15.85;;;8.23;;
78783;SDS011;68127;51.050;14.084;2023-03-19T09:03:53;27.50;;;17.83;;
78783;SDS011;68127;51.050;14.084;2023-03-19T09:06:19;18.20;;;11.32;;
78783;SDS011;68127;51.050;14.084;2023-03-19T09:08:44;13.63;;;7.97;;
78783;SDS011;68127;51.050;14.084;2023-03-19T09:11:10;14.43;;;8.13;;
78783;SDS011;68127;51.050;14.084;2023-03-19T09:13:35;14.07;;;8.30;;
78783;SDS011;68127;51.050;14.084;2023-03-19T09:16:01;12.68;;;8.50;;
78783;SDS011;68127;51.050;14.084;2023-03-19T09:18:27;11.65;;;7.97;;
78783;SDS011;68127;51.050;14.084;2023-03-19T09:20:53;11.82;;;6.70;;
78783;SDS011;68127;51.050;14.084;2023-03-19T09:23:19;13.52;;;8.15;;
78783;SDS011;68127;51.050;14.084;2023-03-19T09:25:45;13.88;;;7.10;;
78783;SDS011;68127;51.050;14.084;2023-03-19T09:28:11;12.15;;;7.28;;
78783;SDS011;68127;51.050;14.084;2023-03-19T09:30:36;11.82;;;7.53;;
78783;SDS011;68127;51.050;14.084;2023-03-19T09:33:03;14.13;;;7.57;;
78783;SDS011;68127;51.050;14.084;2023-03-19T09:35:28;14.80;;;7.90;;
78783;SDS011;68127;51.050;14.084;2023-03-19T09:37:58;13.27;;;7.68;;
78783;SDS011;68127;51.050;14.084;2023-03-19T09:40:25;13.45;;;8.18;;
78783;SDS011;68127;51.050;14.084;2023-03-19T09:43:02;15.32;;;8.80;;
78783;SDS011;68127;51.050;14.084;2023-03-19T09:45:48;13.35;;;7.22;;
78783;SDS011;68127;51.050;14.084;2023-03-19T09:48:28;14.73;;;8.13;;
78783;SDS011;68127;51.050;14.084;2023-03-19T09:50:58;14.77;;;7.68;;
78783;SDS011;68127;51.050;14.084;2023-03-19T09:53:31;13.98;;;8.30;;
78783;SDS011;68127;51.050;14.084;2023-03-19T09:56:11;13.43;;;8.18;;
78783;SDS011;68127;51.050;14.084;2023-03-19T09:58:40;13.90;;;9.00;;
78783;SDS011;68127;51.050;14.084;2023-03-19T10:01:15;15.27;;;7.70;;
78783;SDS011;68127;51.050;14.084;2023-03-19T10:07:14;14.07;;;7.28;;
78783;SDS011;68127;51.050;14.084;2023-03-19T10:09:56;12.90;;;8.32;;
78783;SDS011;68127;51.050;14.084;2023-03-19T10:12:38;14.57;;;8.07;;
78783;SDS011;68127;51.050;14.084;2023-03-19T10:15:31;12.40;;;7.15;;
78783;SDS011;68127;51.050;14.084;2023-03-19T10:20:33;14.35;;;8.07;;
78783;SDS011;68127;51.050;14.084;2023-03-19T10:23:10;13.77;;;8.13;;
78783;SDS011;68127;51.050;14.084;2023-03-19T10:25:50;13.20;;;7.43;;
78783;SDS011;68127;51.050;14.084;2023-03-19T10:28:17;12.55;;;7.60;;
78783;SDS011;68127;51.050;14.084;2023-03-19T10:30:43;11.80;;;7.75;;
78783;SDS011;68127;51.050;14.084;2023-03-19T10:33:29;14.80;;;8.60;;
78783;SDS011;68127;51.050;14.084;2023-03-19T10:36:09;17.60;;;7.93;;
78783;SDS011;68127;51.050;14.084;2023-03-19T10:38:38;14.45;;;7.65;;
78783;SDS011;68127;51.050;14.084;2023-03-19T10:41:19;13.20;;;7.80;;
78783;SDS011;68127;51.050;14.084;2023-03-19T10:44:41;14.45;;;8.63;;
78783;SDS011;68127;51.050;14.084;2023-03-19T10:46:56;14.35;;;7.63;;
78783;SDS011;68127;51.050;14.084;2023-03-19T10:49:22;14.20;;;8.38;;
78783;SDS011;68127;51.050;14.084;2023-03-19T10:51:48;13.73;;;8.05;;
78783;SDS011;68127;51.050;14.084;2023-03-19T10:54:25;13.45;;;8.20;;
78783;SDS011;68127;51.050;14.084;2023-03-19T10:56:54;17.58;;;7.82;;
78783;SDS011;68127;51.050;14.084;2023-03-19T10:59:21;12.20;;;8.02;;
78783;SDS011;68127;51.050;14.084;2023-03-19T11:01:49;13.57;;;8.20;;
78783;SDS011;68127;51.050;14.084;2023-03-19T11:04:20;10.80;;;6.57;;
78783;SDS011;68127;51.050;14.084;2023-03-19T11:06:47;15.48;;;8.52;;
78783;SDS011;68127;51.050;14.084;2023-03-19T11:09:18;15.70;;;8.52;;
78783;SDS011;68127;51.050;14.084;2023-03-19T11:12:05;14.30;;;7.90;;
78783;SDS011;68127;51.050;14.084;2023-03-19T11:14:33;14.40;;;8.53;;
78783;SDS011;68127;51.050;14.084;2023-03-19T11:19:52;13.95;;;8.43;;
78783;SDS011;68127;51.050;14.084;2023-03-19T11:22:40;14.20;;;8.65;;
78783;SDS011;68127;51.050;14.084;2023-03-19T11:30:49;15.57;;;8.30;;
78783;SDS011;68127;51.050;14.084;2023-03-19T11:36:27;13.00;;;8.13;;
78783;SDS011;68127;51.050;14.084;2023-03-19T11:47:51;13.70;;;8.48;;
78783;SDS011;68127;51.050;14.084;2023-03-19T11:53:29;16.95;;;8.98;;
78783;SDS011;68127;51.050;14.084;2023-03-19T12:04:04;15.85;;;8.80;;
78783;SDS011;68127;51.050;14.084;2023-03-19T12:06:46;14.98;;;8.20;;
78783;SDS011;68127;51.050;14.084;2023-03-19T12:14:54;17.20;;;8.70;;
78783;SDS011;68127;51.050;14.084;2023-03-19T12:20:15;13.50;;;8.00;;
78783;SDS011;68127;51.050;14.084;2023-03-19T12:22:58;14.52;;;7.82;;
78783;SDS011;68127;51.050;14.084;2023-03-19T12:25:39;13.50;;;8.23;;
78783;SDS011;68127;51.050;14.084;2023-03-19T12:34:06;12.55;;;7.85;;
78783;SDS011;68127;51.050;14.084;2023-03-19T12:36:36;13.25;;;8.25;;
78783;SDS011;68127;51.050;14.084;2023-03-19T12:41:35;14.95;;;7.93;;
78783;SDS011;68127;51.050;14.084;2023-03-19T12:44:08;14.32;;;8.25;;
78783;SDS011;68127;51.050;14.084;2023-03-19T12:49:15;13.10;;;7.53;;
78783;SDS011;68127;51.050;14.084;2023-03-19T12:51:50;17.35;;;9.10;;
78783;SDS011;68127;51.050;14.084;2023-03-19T12:54:29;14.55;;;7.97;;
78783;SDS011;68127;51.050;14.084;2023-03-19T12:57:18;14.38;;;7.18;;
78783;SDS011;68127;51.050;14.084;2023-03-19T13:04:58;14.60;;;8.30;;
78783;SDS011;68127;51.050;14.084;2023-03-19T13:10:17;12.32;;;7.47;;
78783;SDS011;68127;51.050;14.084;2023-03-19T13:12:43;13.55;;;8.15;;
78783;SDS011;68127;51.050;14.084;2023-03-19T13:15:11;14.32;;;8.25;;
78783;SDS011;68127;51.050;14.084;2023-03-19T13:20:23;14.77;;;8.18;;
78783;SDS011;68127;51.050;14.084;2023-03-19T13:22:54;13.23;;;8.43;;
78783;SDS011;68127;51.050;14.084;2023-03-19T13:25:26;12.90;;;7.60;;
78783;SDS011;68127;51.050;14.084;2023-03-19T13:27:56;14.02;;;7.38;;
78783;SDS011;68127;51.050;14.084;2023-03-19T13:30:22;12.73;;;7.57;;
78783;SDS011;68127;51.050;14.084;2023-03-19T13:37:42;15.02;;;7.60;;
78783;SDS011;68127;51.050;14.084;2023-03-19T13:43:02;15.68;;;8.30;;
78783;SDS011;68127;51.050;14.084;2023-03-19T13:59:31;11.45;;;7.38;;
78783;SDS011;68127;51.050;14.084;2023-03-19T14:01:57;12.70;;;7.63;;
78783;SDS011;68127;51.050;14.084;2023-03-19T14:04:27;15.60;;;7.88;;
78783;SDS011;68127;51.050;14.084;2023-03-19T14:07:03;12.88;;;8.73;;
78783;SDS011;68127;51.050;14.084;2023-03-19T14:09:39;14.00;;;8.15;;
78783;SDS011;68127;51.050;14.084;2023-03-19T14:14:51;16.13;;;8.73;;
78783;SDS011;68127;51.050;14.084;2023-03-19T14:17:44;13.52;;;7.43;;
78783;SDS011;68127;51.050;14.084;2023-03-19T14:28:19;13.18;;;7.50;;
78783;SDS011;68127;51.050;14.084;2023-03-19T14:30:48;15.50;;;8.50;;
78783;SDS011;68127;51.050;14.084;2023-03-19T14:33:19;14.15;;;9.05;;
78783;SDS011;68127;51.050;14.084;2023-03-19T14:35:47;13.98;;;8.40;;
78783;SDS011;68127;51.050;14.084;2023-03-19T14:38:15;13.05;;;7.60;;
78783;SDS011;68127;51.050;14.084;2023-03-19T14:40:49;15.73;;;8.43;;
78783;SDS011;68127;51.050;14.084;2023-03-19T14:46:00;18.38;;;9.45;;
78783;SDS011;68127;51.050;14.084;2023-03-19T14:54:03;13.77;;;8.48;;
78783;SDS011;68127;51.050;14.084;2023-03-19T14:56:31;14.13;;;8.25;;
78783;SDS011;68127;51.050;14.084;2023-03-19T14:58:58;19.15;;;10.35;;
78783;SDS011;68127;51.050;14.084;2023-03-19T15:01:27;18.85;;;9.63;;
78783;SDS011;68127;51.050;14.084;2023-03-19T15:03:59;18.90;;;10.45;;
78783;SDS011;68127;51.050;14.084;2023-03-19T15:06:32;15.93;;;10.02;;
78783;SDS011;68127;51.050;14.084;2023-03-19T15:08:58;17.50;;;9.40;;
78783;SDS011;68127;51.050;14.084;2023-03-19T15:17:13;15.63;;;9.15;;
78783;SDS011;68127;51.050;14.084;2023-03-19T15:19:45;17.38;;;9.38;;
78783;SDS011;68127;51.050;14.084;2023-03-19T15:22:12;15.57;;;8.52;;
78783;SDS011;68127;51.050;14.084;2023-03-19T15:25:08;16.67;;;10.30;;
78783;SDS011;68127;51.050;14.084;2023-03-19T15:27:35;16.33;;;9.77;;
78783;SDS011;68127;51.050;14.084;2023-03-19T15:30:00;22.10;;;10.95;;
78783;SDS011;68127;51.050;14.084;2023-03-19T15:32:33;16.80;;;9.82;;
78783;SDS011;68127;51.050;14.084;2023-03-19T15:35:03;20.38;;;11.20;;
78783;SDS011;68127;51.050;14.084;2023-03-19T15:37:34;18.58;;;10.82;;
78783;SDS011;68127;51.050;14.084;2023-03-19T15:40:04;15.90;;;9.57;;
78783;SDS011;68127;51.050;14.084;2023-03-19T15:42:31;14.73;;;9.35;;
78783;SDS011;68127;51.050;14.084;2023-03-19T15:44:58;18.40;;;9.48;;
78783;SDS011;68127;51.050;14.084;2023-03-19T15:47:30;17.65;;;11.10;;
78783;SDS011;68127;51.050;14.084;2023-03-19T15:50:00;18.65;;;10.13;;
78783;SDS011;68127;51.050;14.084;2023-03-19T15:52:30;18.15;;;10.65;;
78783;SDS011;68127;51.050;14.084;2023-03-19T15:54:56;17.75;;;9.68;;
78783;SDS011;68127;51.050;14.084;2023-03-19T15:57:24;17.40;;;9.93;;
78783;SDS011;68127;51.050;14.084;2023-03-19T15:59:50;17.25;;;10.32;;
78783;SDS011;68127;51.050;14.084;2023-03-19T16:02:27;17.63;;;10.60;;
78783;SDS011;68127;51.050;14.084;2023-03-19T16:04:54;18.35;;;11.35;;
78783;SDS011;68127;51.050;14.084;2023-03-19T16:07:24;19.70;;;10.48;;
78783;SDS011;68127;51.050;14.084;2023-03-19T16:09:57;19.02;;;10.80;;
78783;SDS011;68127;51.050;14.084;2023-03-19T16:12:36;17.88;;;10.23;;
78783;SDS011;68127;51.050;14.084;2023-03-19T16:18:39;17.23;;;9.70;;
78783;SDS011;68127;51.050;14.084;2023-03-19T16:20:59;16.88;;;10.13;;
78783;SDS011;68127;51.050;14.084;2023-03-19T16:23:35;18.40;;;10.40;;
78783;SDS011;68127;51.050;14.084;2023-03-19T16:26:10;17.58;;;10.32;;
78783;SDS011;68127;51.050;14.084;2023-03-19T16:28:40;17.52;;;10.18;;
78783;SDS011;68127;51.050;14.084;2023-03-19T16:31:16;16.83;;;9.40;;